Forest Knolls, Pennsylvania
Current Conditions -  °F | °C
As of 3:53 PM on Saturday 22 Nov 2014 (Local Time) from KLNS Reporting Station
Overcast Overcast  
Wind Chill: 38°   Ceiling: 5500
Heat Index: 42°   Visibility: 10mi
Dew Point: 15°   Wind: 7mph
Humidity: 34%   Direction: 200°SSW
Pressure: 30.28"   Gusts: NA
Location:  40.0642°N, 76.4378°W
Report Text: KLNS 222053Z 20006KT 10SM OVC055 06/M09 A3028 RMK AO2 SLP256 60000 T00561094 58020
Loading
Personal Weather Stations






























Interactive Weather Map New forecast layout! Learn more

10-Day Weather Forecast

Advertisements
Track Severe Weather on mobile